Time;durP1;ratioP1;P1;durP2;ratioP2;P2;SDS_P1;SDS_P2;PMS_P1;PMS_P2;Temp;Humidity;BMP_temperature;BMP_pressure;BME280_temperature;BME280_humidity;BME280_pressure;Samples;Min_cycle;Max_cycle;Signal;HPM_P1;HPM_P2
2023/02/22 00:04:53;;;;;;;1.53;0.80;;;;;;;8.32;68.10;97790.44;6226664;28;20323;-38
2023/02/22 00:07:55;;;;;;;1.20;0.90;;;;;;;8.32;68.48;97793.91;6227077;28;20781;-38
2023/02/22 00:11:00;;;;;;;3.23;0.93;;;;;;;8.47;68.25;97807.66;6230145;28;20730;-38
2023/02/22 00:14:02;;;;;;;1.10;0.80;;;;;;;8.48;67.96;97811.91;6230142;28;20244;-39
2023/02/22 00:17:04;;;;;;;3.47;1.00;;;;;;;8.45;68.84;97807.03;6212441;28;20242;-38
2023/02/22 00:20:07;;;;;;;0.97;0.97;;;;;;;8.47;68.44;97812.13;6229241;28;20774;-38
2023/02/22 00:23:19;;;;;;;2.20;1.07;;;;;;;8.43;68.82;97814.44;6226943;28;20738;-38
2023/02/22 00:26:22;;;;;;;1.53;1.00;;;;;;;8.27;68.83;97780.50;6225497;28;20225;-38
2023/02/22 00:29:24;;;;;;;1.03;0.93;;;;;;;8.51;68.84;97816.75;6229220;28;20239;-38
2023/02/22 00:32:26;;;;;;;1.03;0.93;;;;;;;8.47;69.02;97818.25;6227863;28;20272;-38
2023/02/22 00:35:30;;;;;;;4.63;1.07;;;;;;;8.47;69.33;97812.13;6226474;28;20626;-38
2023/02/22 00:38:32;;;;;;;1.77;1.00;;;;;;;8.49;69.49;97810.88;6277632;28;20225;-38
2023/02/22 00:41:36;;;;;;;0.93;0.80;;;;;;;8.52;69.49;97818.41;6310350;28;20946;-38
2023/02/22 00:44:38;;;;;;;1.40;0.80;;;;;;;8.58;69.63;97815.88;6329047;28;20571;-38
2023/02/22 00:47:40;;;;;;;1.63;1.20;;;;;;;8.63;69.40;97816.00;6333607;27;20221;-38
2023/02/22 00:50:42;;;;;;;2.03;1.00;;;;;;;8.63;69.30;97816.81;6332887;27;20238;-38
2023/02/22 00:53:44;;;;;;;1.73;0.90;;;;;;;8.64;69.68;97817.63;6314520;28;20362;-38
2023/02/22 00:56:46;;;;;;;1.47;1.00;;;;;;;8.68;69.39;97816.94;6332075;27;20324;-38
2023/02/22 00:59:48;;;;;;;1.07;1.00;;;;;;;8.68;69.72;97819.59;6330184;27;20688;-38
2023/02/22 01:02:50;;;;;;;0.73;0.73;;;;;;;8.71;69.43;97823.63;6329856;27;20358;-38
2023/02/22 01:05:53;;;;;;;1.87;0.80;;;;;;;8.73;69.39;97821.59;6329197;27;20225;-38
2023/02/22 01:08:55;;;;;;;1.10;0.83;;;;;;;8.62;69.39;97796.63;6311029;28;20574;-38
2023/02/22 01:11:58;;;;;;;4.63;1.00;;;;;;;8.76;69.39;97811.28;6325146;28;20234;-38
2023/02/22 01:15:02;;;;;;;2.70;1.07;;;;;;;8.81;69.31;97804.50;6309558;28;20233;-38
2023/02/22 01:18:05;;;;;;;2.40;0.83;;;;;;;8.68;69.21;97793.06;6328500;27;20634;-38
2023/02/22 01:21:07;;;;;;;1.83;1.10;;;;;;;8.76;69.27;97797.22;6328485;28;20585;-38
2023/02/22 01:24:10;;;;;;;2.00;0.97;;;;;;;8.80;69.35;97798.38;6328929;27;20292;-38
2023/02/22 01:27:12;;;;;;;1.20;1.10;;;;;;;8.80;69.36;97798.38;6327847;28;20296;-38
2023/02/22 01:30:16;;;;;;;1.50;0.90;;;;;;;8.80;69.74;97801.03;6325049;27;20261;-38
2023/02/22 01:33:18;;;;;;;2.50;0.90;;;;;;;8.81;69.42;97796.53;6309866;27;20241;-38
2023/02/22 01:36:21;;;;;;;2.83;1.13;;;;;;;8.83;69.15;97797.94;6331674;27;20233;-38
2023/02/22 01:39:23;;;;;;;2.30;1.17;;;;;;;8.85;69.18;97793.19;6329977;27;20710;-38
2023/02/22 01:42:28;;;;;;;1.93;1.20;;;;;;;8.91;69.18;97796.78;6334905;27;20302;-38
2023/02/22 01:45:31;;;;;;;1.20;0.97;;;;;;;8.90;69.10;97795.97;6327382;27;20227;-38
2023/02/22 01:48:44;;;;;;;1.57;0.93;;;;;;;8.91;69.05;97794.13;6330694;27;20560;-38
2023/02/22 01:51:54;;;;;;;1.77;1.00;;;;;;;8.90;69.04;97795.16;6325731;27;20236;-39
2023/02/22 01:54:58;;;;;;;0.80;0.70;;;;;;;8.91;69.18;97791.47;6312014;27;20233;-38
2023/02/22 01:58:02;;;;;;;2.10;1.00;;;;;;;8.87;69.88;97791.13;6324607;27;20575;-38
2023/02/22 02:01:05;;;;;;;1.30;0.97;;;;;;;8.88;69.69;97791.94;6333423;27;20225;-38
2023/02/22 02:04:16;;;;;;;1.20;1.00;;;;;;;8.83;69.90;97784.66;6326642;28;20236;-39
2023/02/22 02:07:21;;;;;;;2.87;1.00;;;;;;;8.89;69.83;97782.94;6327421;28;20230;-38
2023/02/22 02:10:27;;;;;;;1.53;1.00;;;;;;;8.90;69.53;97779.22;6308864;28;20240;-38
2023/02/22 02:13:29;;;;;;;1.83;0.90;;;;;;;8.98;69.27;97781.56;6309523;28;20223;-38
2023/02/22 02:16:46;;;;;;;1.20;1.10;;;;;;;8.98;69.19;97784.22;6326664;27;20234;-38
2023/02/22 02:20:10;;;;;;;1.70;0.97;;;;;;;8.95;69.08;97769.53;6324552;28;20225;-38
2023/02/22 02:23:39;;;;;;;2.57;1.10;;;;;;;8.99;69.46;97769.91;6329621;27;20233;-38
2023/02/22 02:27:04;;;;;;;1.17;0.93;;;;;;;9.00;69.47;97777.63;6305540;28;20233;-38
2023/02/22 02:30:27;;;;;;;1.43;1.10;;;;;;;9.01;69.21;97771.28;6326713;28;20686;-38
2023/02/22 02:33:37;;;;;;;1.63;1.00;;;;;;;9.07;68.89;97758.13;6296865;28;20226;-39
2023/02/22 02:36:54;;;;;;;1.00;0.90;;;;;;;9.07;69.12;97763.44;6330915;28;20607;-38
2023/02/22 02:40:16;;;;;;;1.10;1.00;;;;;;;9.11;68.94;97767.25;6315856;28;20698;-38
2023/02/22 02:43:30;;;;;;;1.17;0.90;;;;;;;9.13;68.84;97767.84;6301392;28;20385;-38
2023/02/22 02:46:49;;;;;;;1.57;1.20;;;;;;;9.12;68.94;97759.06;6327005;28;20290;-38
2023/02/22 02:50:17;;;;;;;1.73;0.87;;;;;;;9.13;68.70;97759.88;6309625;28;20227;-38
2023/02/22 02:53:28;;;;;;;1.20;0.97;;;;;;;9.12;69.15;97761.72;6306186;28;20262;-39
2023/02/22 02:56:30;;;;;;;2.30;1.30;;;;;;;9.09;69.11;97758.69;6311472;27;20242;-38
2023/02/22 02:59:36;;;;;;;1.37;1.00;;;;;;;9.11;69.06;97757.41;6332196;28;20378;-38
2023/02/22 03:03:04;;;;;;;1.47;1.37;;;;;;;9.13;68.91;97751.88;6328637;28;20577;-39
2023/02/22 03:06:27;;;;;;;2.83;1.00;;;;;;;9.13;68.95;97744.72;6276131;28;20217;-39
2023/02/22 03:09:44;;;;;;;1.40;1.00;;;;;;;9.15;68.84;97744.47;6331604;28;20231;-38
2023/02/22 03:13:04;;;;;;;1.70;1.20;;;;;;;9.14;68.97;97754.31;6312607;28;20222;-38
2023/02/22 03:16:15;;;;;;;1.10;1.00;;;;;;;9.17;68.95;97758.38;6328435;27;20230;-38
2023/02/22 03:19:43;;;;;;;1.90;1.10;;;;;;;9.12;68.92;97751.09;6340971;27;20223;-39
2023/02/22 03:22:57;;;;;;;1.80;1.30;;;;;;;9.12;68.92;97745.78;6306202;28;20927;-39
2023/02/22 03:26:08;;;;;;;1.50;1.20;;;;;;;9.10;69.31;97750.47;6334894;27;20378;-38
2023/02/22 03:29:16;;;;;;;1.17;1.07;;;;;;;9.04;69.28;97749.56;6316835;28;20677;-38
2023/02/22 03:32:28;;;;;;;3.47;1.33;;;;;;;8.97;69.38;97735.59;6334861;27;20679;-39
2023/02/22 03:35:34;;;;;;;1.67;1.07;;;;;;;9.00;69.47;97743.09;6333355;27;20229;-39
2023/02/22 03:38:40;;;;;;;1.40;1.30;;;;;;;9.01;69.33;97751.84;6315384;28;20312;-38
2023/02/22 03:41:50;;;;;;;1.20;1.10;;;;;;;9.02;69.09;97750.84;6334737;27;20335;-38
2023/02/22 03:44:59;;;;;;;1.43;1.17;;;;;;;9.05;69.24;97763.66;6316162;27;20251;-38
2023/02/22 03:48:30;;;;;;;2.27;1.30;;;;;;;9.03;69.48;97763.91;6308217;27;20618;-38
2023/02/22 03:51:35;;;;;;;2.63;1.20;;;;;;;9.05;69.24;97761.00;6311819;27;20232;-38
2023/02/22 03:54:38;;;;;;;1.60;1.20;;;;;;;9.04;69.92;97765.50;6313928;27;20753;-38
2023/02/22 03:57:45;;;;;;;2.37;1.60;;;;;;;9.04;69.81;97759.38;6330684;28;20605;-38
2023/02/22 04:00:51;;;;;;;4.47;1.07;;;;;;;9.04;69.50;97762.03;6331807;27;20229;-38
2023/02/22 04:03:54;;;;;;;1.20;1.10;;;;;;;9.06;69.42;97762.59;6315175;28;20229;-39
2023/02/22 04:06:56;;;;;;;2.37;0.70;;;;;;;9.05;69.61;97771.63;6331548;27;20226;-38
2023/02/22 04:10:01;;;;;;;1.60;1.20;;;;;;;9.02;69.88;97772.91;6332296;27;20226;-38
2023/02/22 04:13:07;;;;;;;1.10;1.00;;;;;;;8.78;69.37;97739.38;6332214;27;20245;-38
2023/02/22 04:16:16;;;;;;;0.80;0.80;;;;;;;9.03;69.78;97776.38;6309636;28;20610;-38
2023/02/22 04:19:18;;;;;;;2.07;1.10;;;;;;;9.02;69.46;97772.91;6331073;27;20282;-38
2023/02/22 04:22:21;;;;;;;1.50;1.17;;;;;;;8.75;69.17;97737.97;6313994;27;20231;-38
2023/02/22 04:25:24;;;;;;;3.00;1.20;;;;;;;8.99;69.43;97775.22;6330896;27;20232;-39
2023/02/22 04:28:26;;;;;;;1.47;1.17;;;;;;;8.99;69.57;97776.00;6311571;28;20234;-38
2023/02/22 04:31:38;;;;;;;1.30;1.10;;;;;;;8.99;69.27;97778.66;6311550;28;20241;-38
2023/02/22 04:34:41;;;;;;;1.57;1.00;;;;;;;8.84;68.91;97748.28;6316930;28;20726;-38
2023/02/22 04:37:43;;;;;;;1.40;0.90;;;;;;;8.98;69.22;97774.41;6311426;28;20245;-38
2023/02/22 04:40:45;;;;;;;2.67;1.20;;;;;;;8.96;69.41;97773.81;6310677;28;20237;-38
2023/02/22 04:43:48;;;;;;;1.67;1.30;;;;;;;8.95;69.24;97772.19;6329795;27;20236;-38
2023/02/22 04:46:56;;;;;;;2.10;1.37;;;;;;;8.93;69.25;97768.16;6327375;27;20218;-38
2023/02/22 04:49:59;;;;;;;1.33;1.10;;;;;;;8.91;69.86;97771.03;6310884;27;20620;-38
2023/02/22 04:53:02;;;;;;;2.30;1.47;;;;;;;8.89;69.38;97762.50;6311557;27;20227;-38
2023/02/22 04:56:04;;;;;;;2.03;1.30;;;;;;;8.88;69.64;97768.84;6331740;27;20237;-38
2023/02/22 04:59:06;;;;;;;2.17;1.40;;;;;;;8.84;69.55;97757.06;6314247;28;20287;-38
2023/02/22 05:02:08;;;;;;;1.20;1.10;;;;;;;8.80;69.81;97758.53;6312950;28;20370;-39
2023/02/22 05:05:13;;;;;;;4.13;1.27;;;;;;;8.77;69.96;97770.44;6328644;28;20231;-38
2023/02/22 05:08:15;;;;;;;1.17;1.07;;;;;;;8.71;70.29;97757.25;6318614;28;20230;-39
2023/02/22 05:11:18;;;;;;;1.87;1.00;;;;;;;8.71;70.05;97763.38;6334326;27;20320;-38
2023/02/22 05:14:20;;;;;;;1.07;0.97;;;;;;;8.72;70.25;97765.00;6335361;27;20213;-38
2023/02/22 05:17:22;;;;;;;3.67;1.10;;;;;;;8.68;70.39;97769.16;6334682;27;20224;-38
2023/02/22 05:20:28;;;;;;;2.47;1.30;;;;;;;8.67;70.40;97764.88;6311975;28;20221;-39
2023/02/22 05:23:30;;;;;;;2.23;1.20;;;;;;;8.67;70.33;97762.22;6328892;27;20272;-38
2023/02/22 05:26:32;;;;;;;2.87;1.23;;;;;;;8.34;70.39;97714.88;6329443;28;20233;-38
2023/02/22 05:29:37;;;;;;;2.40;1.17;;;;;;;8.62;70.48;97764.75;6323875;28;21092;-38
2023/02/22 05:32:39;;;;;;;2.00;0.90;;;;;;;8.58;70.82;97757.47;6326342;28;20232;-38
2023/02/22 05:35:41;;;;;;;1.10;1.00;;;;;;;8.59;71.06;97761.72;6333088;27;20234;-38
2023/02/22 05:38:43;;;;;;;1.60;1.10;;;;;;;8.59;70.87;97762.53;6330423;27;20616;-38
2023/02/22 05:41:45;;;;;;;0.93;0.90;;;;;;;8.61;70.82;97759.66;6329196;27;20224;-39
2023/02/22 05:44:47;;;;;;;2.43;1.20;;;;;;;8.58;70.89;97765.44;6328300;27;20228;-38
2023/02/22 05:47:50;;;;;;;1.30;1.20;;;;;;;8.56;70.75;97762.16;6330747;28;20297;-39
2023/02/22 05:50:52;;;;;;;2.70;0.90;;;;;;;8.56;70.72;97770.13;6330055;27;20275;-39
2023/02/22 05:53:54;;;;;;;1.10;1.00;;;;;;;8.58;70.86;97760.13;6329077;27;20239;-38
2023/02/22 05:56:56;;;;;;;1.47;1.13;;;;;;;8.41;70.63;97741.34;6329052;27;20233;-38
2023/02/22 05:59:58;;;;;;;1.07;0.97;;;;;;;8.61;70.41;97770.28;6329700;27;20217;-38
2023/02/22 06:03:03;;;;;;;1.83;1.10;;;;;;;8.58;70.82;97770.75;6329221;27;20230;-38
2023/02/22 06:06:06;;;;;;;1.47;1.37;;;;;;;8.57;70.82;97774.41;6330258;27;20714;-38
2023/02/22 06:09:08;;;;;;;2.03;1.17;;;;;;;8.27;70.99;97730.06;6328757;28;20237;-38
2023/02/22 06:12:10;;;;;;;1.87;1.37;;;;;;;8.53;70.93;97782.84;6327824;28;20350;-38
2023/02/22 06:15:14;;;;;;;1.20;1.10;;;;;;;8.55;71.05;97787.13;6310419;28;20221;-38
2023/02/22 06:18:16;;;;;;;2.63;1.13;;;;;;;8.55;71.16;97779.94;6328615;27;20314;-38
2023/02/22 06:21:18;;;;;;;3.63;1.17;;;;;;;8.55;70.96;97781.81;6325388;28;20228;-38
2023/02/22 06:24:21;;;;;;;1.33;1.10;;;;;;;8.61;70.81;97791.50;6325357;28;20244;-39
2023/02/22 06:27:23;;;;;;;2.33;1.20;;;;;;;8.64;70.71;97796.38;6326415;28;20326;-38
2023/02/22 06:30:26;;;;;;;3.10;1.10;;;;;;;8.68;70.55;97792.25;6324207;28;20225;-38
2023/02/22 06:33:28;;;;;;;1.40;1.20;;;;;;;8.69;70.71;97789.34;6326588;27;20240;-38
2023/02/22 06:36:30;;;;;;;1.23;0.90;;;;;;;8.74;70.69;97794.78;6328519;28;20578;-38
2023/02/22 06:39:32;;;;;;;1.70;1.30;;;;;;;8.73;70.75;97785.22;6325931;28;20328;-39
2023/02/22 06:42:34;;;;;;;4.60;1.33;;;;;;;8.81;71.21;97801.84;6329004;28;20233;-38
2023/02/22 06:45:36;;;;;;;2.00;1.00;;;;;;;8.87;70.79;97793.00;6329403;28;20313;-38
2023/02/22 06:48:41;;;;;;;1.73;1.00;;;;;;;8.92;70.43;97799.22;6329405;28;20231;-38
2023/02/22 06:51:44;;;;;;;1.57;1.10;;;;;;;8.98;70.91;97805.47;6328575;28;20233;-38
2023/02/22 06:54:46;;;;;;;2.07;1.10;;;;;;;9.02;71.12;97807.47;6304958;28;20257;-38
2023/02/22 06:57:49;;;;;;;2.63;1.30;;;;;;;9.07;70.50;97801.47;6328901;28;20324;-38
2023/02/22 07:00:51;;;;;;;3.20;1.10;;;;;;;9.15;70.59;97800.28;6328460;28;20225;-38
2023/02/22 07:03:53;;;;;;;1.57;1.00;;;;;;;9.20;70.29;97792.44;6326802;28;20241;-38
2023/02/22 07:06:55;;;;;;;1.57;1.20;;;;;;;9.28;70.68;97798.22;6325834;28;20366;-38
2023/02/22 07:09:57;;;;;;;1.57;1.17;;;;;;;9.33;70.50;97804.72;6326700;28;20244;-38
2023/02/22 07:13:01;;;;;;;1.60;1.10;;;;;;;9.40;69.86;97798.22;6324146;28;20299;-38
2023/02/22 07:16:03;;;;;;;1.03;0.90;;;;;;;9.50;69.78;97795.78;6327485;28;20689;-38
2023/02/22 07:19:05;;;;;;;1.30;1.10;;;;;;;9.50;69.65;97777.19;6327110;28;20736;-38
2023/02/22 07:22:07;;;;;;;1.47;0.87;;;;;;;9.74;69.19;97798.44;6325754;28;20262;-38
2023/02/22 07:25:10;;;;;;;0.90;0.90;;;;;;;9.67;68.72;97774.63;6327222;28;20235;-39
2023/02/22 07:28:12;;;;;;;1.30;1.07;;;;;;;9.91;68.54;97803.88;6323338;28;20253;-38
2023/02/22 07:31:15;;;;;;;1.60;1.27;;;;;;;9.92;68.11;97792.19;6326052;28;20252;-38
2023/02/22 07:34:17;;;;;;;2.10;1.20;;;;;;;10.08;67.94;97800.22;6324786;28;20239;-38
2023/02/22 07:37:20;;;;;;;1.17;0.83;;;;;;;10.18;67.21;97794.31;6327674;28;20229;-38
2023/02/22 07:40:23;;;;;;;0.90;0.90;;;;;;;10.08;66.69;97762.97;6327018;28;20702;-39
2023/02/22 07:43:27;;;;;;;1.23;1.00;;;;;;;10.25;66.33;97778.25;6331533;28;20315;-38
2023/02/22 07:46:32;;;;;;;1.10;1.00;;;;;;;10.47;65.81;97797.03;6311877;28;20777;-38
2023/02/22 07:49:34;;;;;;;1.63;1.37;;;;;;;10.56;64.15;97788.41;6333511;27;20348;-38
2023/02/22 07:52:36;;;;;;;1.90;1.27;;;;;;;10.67;63.60;97792.06;6334134;27;20592;-38
2023/02/22 07:55:38;;;;;;;1.40;1.20;;;;;;;10.70;64.33;97785.47;6332246;27;20240;-38
2023/02/22 07:58:40;;;;;;;1.47;1.33;;;;;;;10.53;62.28;97743.59;6330595;27;20667;-39
2023/02/22 08:01:42;;;;;;;3.43;1.63;;;;;;;10.91;61.20;97790.09;6331936;27;20254;-45
2023/02/22 08:04:44;;;;;;;2.67;1.67;;;;;;;10.99;59.94;97788.88;6328285;27;20263;-39
2023/02/22 08:07:46;;;;;;;2.37;1.20;;;;;;;11.08;58.71;97779.41;6329568;28;20726;-39
2023/02/22 08:10:50;;;;;;;1.60;1.30;;;;;;;11.22;57.58;97787.91;6331115;27;20243;-39
2023/02/22 08:13:52;;;;;;;1.77;1.37;;;;;;;11.32;56.56;97780.06;6308815;27;20228;-39
2023/02/22 08:16:54;;;;;;;2.20;1.40;;;;;;;11.41;55.73;97780.47;6330951;27;20770;-38
2023/02/22 08:19:56;;;;;;;2.80;1.90;;;;;;;11.53;55.07;97781.19;6327314;27;20242;-39
2023/02/22 08:22:58;;;;;;;1.70;1.60;;;;;;;11.63;54.32;97776.00;6329355;28;20836;-39
2023/02/22 08:26:08;;;;;;;1.57;1.47;;;;;;;11.65;53.39;97762.41;6312495;28;20260;-38
2023/02/22 08:29:10;;;;;;;1.37;1.27;;;;;;;11.81;53.48;97775.69;6322564;27;20912;-39
2023/02/22 08:32:12;;;;;;;1.67;1.43;;;;;;;11.93;52.74;97769.47;6329145;28;20224;-39
2023/02/22 08:35:16;;;;;;;1.60;1.30;;;;;;;12.01;52.07;97771.69;6328612;28;20243;-39
2023/02/22 08:38:20;;;;;;;1.63;1.07;;;;;;;12.11;51.48;97772.63;6327910;27;20335;-38
2023/02/22 08:41:22;;;;;;;1.30;1.17;;;;;;;12.24;51.11;97770.63;6311625;27;20243;-39
2023/02/22 08:44:24;;;;;;;2.50;1.27;;;;;;;12.34;50.74;97768.06;6340101;27;20225;-38
2023/02/22 08:47:26;;;;;;;1.30;1.17;;;;;;;12.45;50.47;97771.66;6331276;27;20235;-39
2023/02/22 08:50:32;;;;;;;1.20;1.10;;;;;;;12.39;50.69;97744.88;6328121;28;20665;-39
2023/02/22 08:53:34;;;;;;;2.27;1.17;;;;;;;12.70;49.67;97771.09;6329946;27;20657;-39
2023/02/22 08:56:36;;;;;;;2.47;1.50;;;;;;;12.68;49.48;97746.50;6331893;27;20225;-39
2023/02/22 08:59:39;;;;;;;1.60;1.40;;;;;;;12.88;49.60;97771.53;6326866;27;20236;-39
2023/02/22 09:02:41;;;;;;;3.17;1.23;;;;;;;12.89;49.30;97745.63;6330889;27;20236;-39
2023/02/22 09:05:43;;;;;;;1.30;1.20;;;;;;;13.10;48.81;97768.81;6326805;27;20763;-39
2023/02/22 09:08:46;;;;;;;1.43;1.20;;;;;;;13.32;48.12;97765.25;6331120;27;20320;-39
2023/02/22 09:11:48;;;;;;;1.20;1.10;;;;;;;13.50;47.68;97762.16;6329168;27;20798;-39
2023/02/22 09:14:53;;;;;;;0.90;0.90;;;;;;;13.58;46.85;97758.97;6324037;27;20720;-39
2023/02/22 09:17:56;;;;;;;1.40;1.10;;;;;;;13.69;47.10;97765.19;6328623;28;20240;-39
2023/02/22 09:20:58;;;;;;;1.40;1.20;;;;;;;13.68;46.79;97756.34;6325032;27;20233;-39
2023/02/22 09:24:07;;;;;;;2.90;1.40;;;;;;;13.75;46.63;97755.34;6325420;27;20277;-39
2023/02/22 09:27:11;;;;;;;1.00;0.90;;;;;;;13.84;46.20;97751.06;6328377;27;20229;-39
2023/02/22 09:30:33;;;;;;;1.13;1.00;;;;;;;13.76;45.76;97736.31;6309461;28;20247;-39
2023/02/22 09:33:35;;;;;;;1.33;1.10;;;;;;;14.05;45.75;97754.66;6325672;27;20237;-39
2023/02/22 09:36:38;;;;;;;1.53;1.07;;;;;;;14.23;45.37;97746.13;6332423;27;20233;-39
2023/02/22 09:39:40;;;;;;;1.33;1.03;;;;;;;14.42;44.02;97747.25;6328282;27;20654;-39
2023/02/22 09:43:02;;;;;;;1.03;0.90;;;;;;;14.47;43.98;97741.09;6335503;27;20239;-40
2023/02/22 09:46:22;;;;;;;1.17;1.00;;;;;;;14.63;44.02;97740.09;6328655;27;20229;-39
2023/02/22 09:49:38;;;;;;;1.07;0.97;;;;;;;14.63;43.58;97737.44;6326676;27;20542;-39
2023/02/22 09:53:03;;;;;;;1.10;0.90;;;;;;;14.60;43.32;97735.25;6324623;28;20620;-39
2023/02/22 09:56:09;;;;;;;1.27;1.03;;;;;;;14.67;43.32;97733.13;6324056;28;20230;-39
2023/02/22 09:59:17;;;;;;;1.90;1.30;;;;;;;14.49;43.37;97735.53;6325062;28;20269;-39
2023/02/22 10:02:28;;;;;;;2.10;1.40;;;;;;;14.20;43.50;97718.00;6330100;27;20664;-39
2023/02/22 10:05:36;;;;;;;2.43;1.43;;;;;;;13.99;44.22;97686.03;6327927;27;20698;-39
2023/02/22 10:08:39;;;;;;;1.93;1.40;;;;;;;14.19;43.89;97719.06;6328879;27;20305;-39
2023/02/22 10:11:55;;;;;;;1.77;1.20;;;;;;;14.28;43.58;97726.59;6326967;28;20306;-39
2023/02/22 10:15:03;;;;;;;1.23;1.13;;;;;;;14.40;43.84;97713.75;6324869;27;20270;-39
2023/02/22 10:18:42;;;;;;;1.50;1.10;;;;;;;14.32;43.51;97674.06;6325021;27;20699;-37
2023/02/22 10:22:03;;;;;;;2.20;1.80;;;;;;;14.76;43.40;97711.16;6321624;27;20703;-38
2023/02/22 10:25:16;;;;;;;1.40;1.27;;;;;;;14.78;43.18;97712.50;6324912;28;20233;-38
2023/02/22 10:28:24;;;;;;;1.40;1.30;;;;;;;14.80;43.42;97715.72;6326939;28;20229;-39
2023/02/22 10:31:32;;;;;;;3.70;1.63;;;;;;;14.77;43.13;97713.56;6326673;28;20228;-38
2023/02/22 10:34:44;;;;;;;4.13;1.67;;;;;;;14.61;42.85;97690.50;6329058;28;20599;-38
2023/02/22 10:37:51;;;;;;;1.97;1.50;;;;;;;14.86;42.85;97706.59;6329907;28;20236;-37
2023/02/22 10:41:02;;;;;;;2.70;2.00;;;;;;;14.63;42.65;97699.91;6327044;28;20310;-37
2023/02/22 10:44:04;;;;;;;3.77;1.80;;;;;;;14.56;42.98;97706.56;6328689;28;20714;-38
2023/02/22 10:47:13;;;;;;;3.40;1.90;;;;;;;14.74;42.63;97702.56;6311266;28;20607;-37
2023/02/22 10:50:19;;;;;;;1.97;1.60;;;;;;;14.93;42.92;97699.09;6326213;28;20232;-37
2023/02/22 10:53:22;;;;;;;2.63;1.50;;;;;;;14.68;43.40;97696.41;6330762;28;20739;-38
2023/02/22 10:56:26;;;;;;;1.90;1.67;;;;;;;14.69;43.85;97693.44;6328748;28;20236;-38
2023/02/22 10:59:33;;;;;;;2.10;1.63;;;;;;;14.63;43.69;97699.91;6329874;28;20734;-38
2023/02/22 11:02:36;;;;;;;2.17;1.50;;;;;;;14.81;43.35;97703.09;6328831;28;20227;-39
2023/02/22 11:05:39;;;;;;;2.97;2.13;;;;;;;14.95;42.69;97694.25;6327663;28;20228;-38
2023/02/22 11:08:42;;;;;;;2.10;1.90;;;;;;;14.99;42.22;97689.16;6329556;28;20225;-38
2023/02/22 11:11:47;;;;;;;2.53;1.83;;;;;;;14.99;42.74;97683.00;6326422;28;20512;-38
2023/02/22 11:14:49;;;;;;;2.93;2.10;;;;;;;14.68;42.93;97674.97;6326395;28;20231;-38
2023/02/22 11:17:54;;;;;;;2.27;1.90;;;;;;;14.42;44.17;97679.44;6326818;28;20257;-38
2023/02/22 11:21:09;;;;;;;3.47;2.23;;;;;;;14.10;44.85;97669.75;6330591;27;20244;-38
2023/02/22 11:24:14;;;;;;;2.03;1.70;;;;;;;14.60;44.00;97665.56;6328411;27;20603;-38
2023/02/22 11:27:37;;;;;;;1.60;1.50;;;;;;;14.87;43.21;97661.78;6329464;27;20588;-38
2023/02/22 11:30:42;;;;;;;1.83;1.43;;;;;;;15.19;42.89;97656.13;6332314;27;20286;-38
2023/02/22 11:33:51;;;;;;;2.97;1.33;;;;;;;15.20;42.88;97660.41;6329316;28;20225;-38
2023/02/22 11:36:53;;;;;;;3.77;1.70;;;;;;;15.49;42.10;97656.03;6330449;28;20229;-38
2023/02/22 11:40:06;;;;;;;2.00;1.80;;;;;;;14.75;41.22;97544.09;6331208;27;20323;-38
2023/02/22 11:43:19;;;;;;;1.80;1.57;;;;;;;15.21;42.16;97643.22;6331763;27;20709;-38
2023/02/22 11:46:25;;;;;;;2.17;1.57;;;;;;;15.51;41.54;97649.56;6327430;28;20324;-38
2023/02/22 11:49:37;;;;;;;2.10;1.50;;;;;;;15.69;41.72;97643.63;6327561;28;20228;-38
2023/02/22 11:52:50;;;;;;;2.00;1.80;;;;;;;15.89;41.10;97627.41;6315166;28;20596;-38
2023/02/22 11:55:55;;;;;;;1.90;1.60;;;;;;;16.00;40.98;97628.16;6333226;27;20260;-38
2023/02/22 11:59:22;;;;;;;2.10;1.87;;;;;;;15.95;40.53;97636.25;6313847;28;20596;-38
2023/02/22 12:02:50;;;;;;;4.50;1.90;;;;;;;15.93;40.74;97631.16;6337130;27;20597;-38
2023/02/22 12:06:28;;;;;;;2.90;2.00;;;;;;;15.89;40.64;97610.50;6328486;27;20703;-38
2023/02/22 12:09:50;;;;;;;3.83;1.90;;;;;;;15.61;41.30;97628.84;6321609;28;20225;-38
2023/02/22 12:12:58;;;;;;;2.17;1.93;;;;;;;15.48;41.60;97624.88;6326793;27;20502;-38
2023/02/22 12:16:31;;;;;;;2.73;1.73;;;;;;;15.49;41.38;97625.69;6328877;27;20279;-38
2023/02/22 12:19:43;;;;;;;1.97;1.77;;;;;;;15.57;41.31;97603.66;6325925;27;20458;-38
2023/02/22 12:22:55;;;;;;;2.43;2.10;;;;;;;15.42;41.56;97609.88;6330630;27;20675;-38
2023/02/22 12:26:15;;;;;;;3.43;2.07;;;;;;;15.41;41.65;97605.56;6325866;27;20218;-38
2023/02/22 12:29:39;;;;;;;1.97;1.60;;;;;;;15.57;41.15;97592.91;6328979;27;20229;-38
2023/02/22 12:32:52;;;;;;;3.27;1.80;;;;;;;15.66;41.17;97596.66;6323348;27;20237;-39
2023/02/22 12:35:58;;;;;;;1.97;1.70;;;;;;;15.35;42.27;97553.00;6329105;28;20283;-38
2023/02/22 12:39:09;;;;;;;2.07;1.80;;;;;;;15.46;41.86;97596.69;6328734;27;20231;-38
2023/02/22 12:42:16;;;;;;;2.60;1.90;;;;;;;15.10;42.21;97578.06;6332158;27;20805;-38
2023/02/22 12:45:29;;;;;;;2.47;1.80;;;;;;;15.30;42.40;97597.84;6334522;27;20678;-38
2023/02/22 12:48:57;;;;;;;3.57;2.90;;;;;;;15.10;43.13;97594.16;6322902;27;20313;-38
2023/02/22 12:52:22;;;;;;;3.43;2.77;;;;;;;14.96;42.88;97590.44;6328520;27;20284;-38
2023/02/22 12:55:31;;;;;;;4.90;2.70;;;;;;;14.96;43.35;97585.88;6327890;27;20320;-39
2023/02/22 12:58:43;;;;;;;2.93;2.00;;;;;;;14.91;43.11;97583.19;6329516;27;20241;-38
2023/02/22 13:01:52;;;;;;;3.10;2.33;;;;;;;14.71;43.61;97556.41;6326552;28;20248;-38
2023/02/22 13:04:54;;;;;;;2.77;2.57;;;;;;;14.71;43.59;97570.63;6331279;27;20228;-38
2023/02/22 13:08:36;;;;;;;3.37;2.47;;;;;;;14.44;43.87;97552.16;6331651;27;20327;-38
2023/02/22 13:12:01;;;;;;;3.13;2.40;;;;;;;14.60;44.31;97570.94;6328009;27;20244;-38
2023/02/22 13:15:24;;;;;;;3.77;2.50;;;;;;;14.69;43.66;97583.50;6310752;28;20233;-38
2023/02/22 13:18:29;;;;;;;2.20;2.00;;;;;;;14.75;43.89;97568.22;6329548;27;20426;-38
2023/02/22 13:21:41;;;;;;;2.20;2.00;;;;;;;14.79;43.62;97573.84;6326314;27;20606;-38
2023/02/22 13:24:48;;;;;;;4.00;2.83;;;;;;;14.65;43.86;97563.69;6329723;27;20630;-38
2023/02/22 13:27:58;;;;;;;2.80;2.40;;;;;;;14.52;43.88;97569.59;6328458;27;20233;-38
2023/02/22 13:31:29;;;;;;;6.00;2.80;;;;;;;14.43;43.69;97569.31;6310673;28;20233;-38
2023/02/22 13:34:58;;;;;;;2.40;2.10;;;;;;;14.51;43.89;97562.63;6327265;27;20225;-38
2023/02/22 13:38:28;;;;;;;2.50;1.93;;;;;;;14.69;43.69;97559.38;6309345;28;20262;-39
2023/02/22 13:41:45;;;;;;;2.20;1.77;;;;;;;14.62;43.44;97537.41;6323699;28;20220;-39
2023/02/22 13:45:35;;;;;;;3.43;2.30;;;;;;;14.74;43.44;97561.25;6329027;27;20306;-39
2023/02/22 13:48:46;;;;;;;3.20;2.13;;;;;;;14.68;43.54;97556.97;6311048;27;20521;-39
2023/02/22 13:51:57;;;;;;;3.47;1.90;;;;;;;14.69;43.87;97566.63;6324758;28;20577;-39
2023/02/22 13:55:14;;;;;;;2.27;2.07;;;;;;;14.62;43.92;97555.38;6327240;28;20229;-39
2023/02/22 13:58:16;;;;;;;3.07;2.10;;;;;;;14.54;44.56;97555.94;6325333;27;20331;-39
2023/02/22 14:01:39;;;;;;;2.83;2.30;;;;;;;14.34;45.51;97557.53;6330799;27;20768;-39
2023/02/22 14:04:41;;;;;;;3.83;2.73;;;;;;;14.23;45.37;97539.00;6330710;27;20225;-39
2023/02/22 14:07:48;;;;;;;3.33;2.50;;;;;;;14.13;45.42;97532.59;6329265;27;20247;-39
2023/02/22 14:10:53;;;;;;;2.30;1.83;;;;;;;14.27;45.31;97551.59;6323782;28;20316;-39
2023/02/22 14:13:59;;;;;;;2.03;1.83;;;;;;;14.28;45.63;97547.84;6318639;28;20236;-39
2023/02/22 14:17:22;;;;;;;2.40;1.97;;;;;;;14.12;45.74;97546.25;6329395;27;20259;-38
2023/02/22 14:20:37;;;;;;;3.53;2.63;;;;;;;13.93;45.83;97545.97;6327024;27;20333;-39
2023/02/22 14:23:47;;;;;;;2.93;2.47;;;;;;;13.96;46.04;97533.94;6324062;28;20272;-39
2023/02/22 14:27:03;;;;;;;2.80;2.60;;;;;;;13.76;46.23;97540.88;6329324;28;20319;-38
2023/02/22 14:30:06;;;;;;;3.87;2.70;;;;;;;13.45;46.79;97537.34;6325599;28;20232;-39
2023/02/22 14:33:51;;;;;;;2.50;2.30;;;;;;;13.41;47.10;97531.69;6323026;27;20221;-39
2023/02/22 14:37:06;;;;;;;4.17;2.73;;;;;;;13.22;47.24;97509.16;6327098;28;20241;-39
2023/02/22 14:40:26;;;;;;;4.03;2.83;;;;;;;13.30;47.73;97529.22;6327068;28;20237;-39
2023/02/22 14:43:28;;;;;;;3.50;2.93;;;;;;;13.29;47.15;97535.66;6328608;28;20236;-38
2023/02/22 14:46:35;;;;;;;5.27;3.50;;;;;;;13.13;47.98;97524.88;6323820;28;20374;-39
2023/02/22 14:49:42;;;;;;;4.60;3.23;;;;;;;13.11;48.14;97521.66;6325839;28;20218;-40
2023/02/22 14:52:47;;;;;;;3.33;2.37;;;;;;;13.12;47.75;97528.63;6330089;27;20680;-39